Time;durP1;ratioP1;P1;durP2;ratioP2;P2;SDS_P1;SDS_P2;PMS_P1;PMS_P2;Temp;Humidity;BMP_temperature;BMP_pressure;BME280_temperature;BME280_humidity;BME280_pressure;Samples;Min_cycle;Max_cycle;Signal;HPM_P1;HPM_P2
2022/02/17 00:00:40;;;;;;;1.42;0.70;;;13.70;99.90;;;;;;4975516;28;20224;-79
2022/02/17 00:03:06;;;;;;;1.33;0.70;;;13.60;99.90;;;;;;4975658;28;20237;-80
2022/02/17 00:05:32;;;;;;;6.53;0.80;;;13.60;99.90;;;;;;4975786;28;20177;-78
2022/02/17 00:07:59;;;;;;;6.20;1.13;;;13.60;99.90;;;;;;4975797;28;20249;-78
2022/02/17 00:10:26;;;;;;;8.52;1.33;;;13.60;99.90;;;;;;4975987;28;20530;-78
2022/02/17 00:12:53;;;;;;;7.70;1.50;;;13.60;99.90;;;;;;4974738;28;20165;-87
2022/02/17 00:15:19;;;;;;;11.32;1.85;;;13.50;99.90;;;;;;4974970;28;20783;-78
2022/02/17 00:17:44;;;;;;;8.75;1.80;;;13.60;99.90;;;;;;4975456;28;20199;-78
2022/02/17 00:20:10;;;;;;;15.45;2.20;;;13.60;99.90;;;;;;4975897;28;20631;-81
2022/02/17 00:22:36;;;;;;;11.05;2.47;;;13.60;99.90;;;;;;4959049;28;20563;-93
2022/02/17 00:25:04;;;;;;;14.48;2.20;;;13.60;99.90;;;;;;4975624;28;20189;-91
2022/02/17 00:27:29;;;;;;;12.45;2.15;;;13.50;99.90;;;;;;4975471;28;20653;-79
2022/02/17 00:29:55;;;;;;;14.70;2.10;;;13.50;99.90;;;;;;4975310;28;20186;-85
2022/02/17 00:32:20;;;;;;;16.20;2.80;;;13.50;99.90;;;;;;4957912;28;20228;-78
2022/02/17 00:34:46;;;;;;;9.68;2.47;;;13.50;99.90;;;;;;4976149;28;20190;-78
2022/02/17 00:37:11;;;;;;;14.82;2.30;;;13.40;99.90;;;;;;4980599;28;20177;-79
2022/02/17 00:39:37;;;;;;;10.93;2.83;;;13.40;99.90;;;;;;4989111;28;20162;-78
2022/02/17 00:42:04;;;;;;;15.73;2.70;;;13.40;99.90;;;;;;4990088;28;20225;-78
2022/02/17 00:44:30;;;;;;;11.95;3.13;;;13.30;99.90;;;;;;4975092;28;20196;-78
2022/02/17 00:46:56;;;;;;;12.73;2.58;;;13.20;99.90;;;;;;4974853;28;20618;-78
2022/02/17 00:49:26;;;;;;;16.38;2.75;;;13.20;99.90;;;;;;4974417;28;20174;-78
2022/02/17 00:51:52;;;;;;;25.35;4.53;;;13.10;99.90;;;;;;4957946;28;20173;-78
2022/02/17 00:54:18;;;;;;;12.07;2.65;;;13.00;99.90;;;;;;4957633;28;20186;-78
2022/02/17 00:56:44;;;;;;;21.35;3.30;;;13.00;99.90;;;;;;4975038;28;20170;-77
2022/02/17 00:59:11;;;;;;;21.58;4.13;;;12.90;99.90;;;;;;4974998;28;20540;-79
2022/02/17 01:01:36;;;;;;;11.25;2.80;;;12.90;99.90;;;;;;4975138;28;20170;-84
2022/02/17 01:04:02;;;;;;;16.30;3.17;;;12.90;99.90;;;;;;4974604;28;20212;-78
2022/02/17 01:06:28;;;;;;;18.67;2.05;;;12.80;99.90;;;;;;4975255;28;20236;-91
2022/02/17 01:08:53;;;;;;;29.58;3.53;;;12.70;99.90;;;;;;4974687;28;20161;-78
2022/02/17 01:11:19;;;;;;;10.10;3.10;;;12.70;99.90;;;;;;4957410;28;20533;-78
2022/02/17 01:13:45;;;;;;;16.10;3.92;;;12.80;99.90;;;;;;4974579;28;20193;-78
2022/02/17 01:16:11;;;;;;;20.13;3.42;;;12.70;99.90;;;;;;4974375;28;20166;-78
2022/02/17 01:18:36;;;;;;;23.23;3.72;;;12.60;99.90;;;;;;4974458;28;20173;-78
2022/02/17 01:21:02;;;;;;;19.73;4.18;;;12.60;99.90;;;;;;4974756;28;20166;-83
2022/02/17 01:23:28;;;;;;;17.00;4.00;;;12.60;99.90;;;;;;4956772;28;20694;-78
2022/02/17 01:25:54;;;;;;;17.35;3.20;;;12.60;99.90;;;;;;4974415;28;20166;-78
2022/02/17 01:28:20;;;;;;;23.05;4.03;;;12.50;99.90;;;;;;4974236;28;20197;-78
2022/02/17 01:30:46;;;;;;;30.92;3.33;;;12.50;99.90;;;;;;4974292;28;20599;-81
2022/02/17 01:33:11;;;;;;;23.05;3.92;;;12.50;99.90;;;;;;4974373;28;20211;-78
2022/02/17 01:35:37;;;;;;;23.83;4.07;;;12.50;99.90;;;;;;4974610;28;20170;-79
2022/02/17 01:38:03;;;;;;;27.80;4.05;;;12.40;99.90;;;;;;4974121;28;20225;-78
2022/02/17 01:40:30;;;;;;;25.15;4.15;;;12.40;99.90;;;;;;4974786;28;20558;-78
2022/02/17 01:42:56;;;;;;;16.98;3.35;;;12.40;99.90;;;;;;4958162;28;20212;-78
2022/02/17 01:45:22;;;;;;;24.35;4.70;;;12.40;99.90;;;;;;4989442;28;20170;-77
2022/02/17 01:47:48;;;;;;;25.17;4.43;;;12.40;99.90;;;;;;4986522;28;20176;-78
2022/02/17 01:50:15;;;;;;;25.98;4.60;;;12.40;99.90;;;;;;4984701;28;20166;-77
2022/02/17 01:52:41;;;;;;;28.45;5.15;;;12.40;99.90;;;;;;4961361;28;20201;-78
2022/02/17 01:55:07;;;;;;;27.63;4.35;;;12.40;99.90;;;;;;4977566;28;20217;-92
2022/02/17 01:57:34;;;;;;;23.17;4.40;;;12.40;99.90;;;;;;4975793;28;20176;-78
2022/02/17 02:00:00;;;;;;;23.85;4.00;;;12.30;99.90;;;;;;4973565;28;20174;-79
2022/02/17 02:02:26;;;;;;;29.60;4.20;;;12.30;99.90;;;;;;4973790;28;20216;-78
2022/02/17 02:04:52;;;;;;;16.48;4.07;;;12.40;99.90;;;;;;4973579;28;20185;-78
2022/02/17 02:07:18;;;;;;;36.70;5.68;;;12.30;99.90;;;;;;4973398;28;20172;-78
2022/02/17 02:09:43;;;;;;;24.83;3.50;;;12.30;99.90;;;;;;4973818;28;20233;-77
2022/02/17 02:12:10;;;;;;;24.08;4.20;;;12.30;99.90;;;;;;4973835;28;20173;-79
2022/02/17 02:14:36;;;;;;;22.10;4.95;;;12.30;99.90;;;;;;4956021;28;20229;-79
2022/02/17 02:17:03;;;;;;;22.85;4.03;;;12.20;99.90;;;;;;4974192;28;20669;-78
2022/02/17 02:19:29;;;;;;;30.23;4.55;;;12.20;99.90;;;;;;4973754;28;20158;-87
2022/02/17 02:21:55;;;;;;;36.35;5.82;;;12.20;99.90;;;;;;4976162;28;20170;-78
2022/02/17 02:24:21;;;;;;;24.30;4.13;;;12.20;99.90;;;;;;4973314;28;20190;-78
2022/02/17 02:26:47;;;;;;;29.88;4.85;;;12.30;99.90;;;;;;4973696;28;20300;-78
2022/02/17 02:29:13;;;;;;;29.27;4.85;;;12.20;99.90;;;;;;4973359;28;20200;-78
2022/02/17 02:31:38;;;;;;;30.02;5.05;;;12.30;99.90;;;;;;4973890;28;20181;-78
2022/02/17 02:34:04;;;;;;;34.17;5.70;;;12.10;99.90;;;;;;4973405;28;20663;-78
2022/02/17 02:36:30;;;;;;;27.00;3.85;;;12.00;99.90;;;;;;4975629;28;20208;-78
2022/02/17 02:38:56;;;;;;;35.47;5.53;;;11.90;99.90;;;;;;4977043;28;20528;-78
2022/02/17 02:41:21;;;;;;;21.70;4.07;;;11.80;99.90;;;;;;4977171;28;20174;-78
2022/02/17 02:43:47;;;;;;;35.35;5.95;;;11.80;99.90;;;;;;4976901;28;20238;-87
2022/02/17 02:46:13;;;;;;;24.75;4.97;;;11.70;99.90;;;;;;4976971;28;20185;-78
2022/02/17 02:48:38;;;;;;;38.92;6.15;;;11.70;99.90;;;;;;4960091;28;20173;-79
2022/02/17 02:51:04;;;;;;;22.13;4.95;;;11.60;99.90;;;;;;4980863;28;20174;-80
2022/02/17 02:53:30;;;;;;;27.00;5.28;;;11.60;99.90;;;;;;5000481;28;20843;-78
2022/02/17 02:55:56;;;;;;;16.58;3.85;;;11.50;99.90;;;;;;4981530;28;20201;-78
2022/02/17 02:58:22;;;;;;;35.20;5.40;;;11.60;99.90;;;;;;4976823;28;20249;-78
2022/02/17 03:00:49;;;;;;;31.70;4.72;;;11.50;99.90;;;;;;4976863;28;20170;-83
2022/02/17 03:03:15;;;;;;;29.33;4.55;;;11.40;99.90;;;;;;4959438;28;20577;-78
2022/02/17 03:05:41;;;;;;;27.27;4.20;;;11.50;99.90;;;;;;4976946;28;20191;-79
2022/02/17 03:08:07;;;;;;;27.77;5.18;;;11.40;99.90;;;;;;4976307;28;20166;-78
2022/02/17 03:10:33;;;;;;;40.90;6.07;;;11.40;99.90;;;;;;4977180;28;20170;-77
2022/02/17 03:13:00;;;;;;;36.47;5.38;;;11.40;99.90;;;;;;4978800;28;20188;-78
2022/02/17 03:15:26;;;;;;;23.08;4.22;;;11.30;99.90;;;;;;4976892;28;20294;-78
2022/02/17 03:17:52;;;;;;;25.92;4.57;;;11.30;99.90;;;;;;4976588;28;20181;-77
2022/02/17 03:20:19;;;;;;;38.13;5.55;;;11.20;99.90;;;;;;4976915;28;20166;-77
2022/02/17 03:22:45;;;;;;;19.73;4.55;;;11.30;99.90;;;;;;4978559;28;20217;-78
2022/02/17 03:25:13;;;;;;;29.58;5.00;;;11.30;99.90;;;;;;4968740;28;20202;-78
2022/02/17 03:27:39;;;;;;;29.80;5.00;;;11.30;99.90;;;;;;4966654;28;20541;-83
2022/02/17 03:30:09;;;;;;;26.10;4.32;;;11.30;99.90;;;;;;4964895;28;20189;-90
2022/02/17 03:32:36;;;;;;;20.02;4.00;;;11.30;99.90;;;;;;4982799;28;20225;-79
2022/02/17 03:35:05;;;;;;;26.17;4.80;;;11.40;99.90;;;;;;4979858;28;20178;-79
2022/02/17 03:37:31;;;;;;;35.25;5.05;;;11.40;99.90;;;;;;4980256;28;20204;-94
2022/02/17 03:39:57;;;;;;;22.30;4.10;;;11.40;99.90;;;;;;4964866;28;20198;-78
2022/02/17 03:42:23;;;;;;;37.38;4.95;;;11.30;99.90;;;;;;4985636;28;20255;-78
2022/02/17 03:44:48;;;;;;;24.85;4.90;;;11.30;99.90;;;;;;4982135;28;20189;-78
2022/02/17 03:47:14;;;;;;;31.52;5.45;;;11.30;99.90;;;;;;4986334;28;20197;-77
2022/02/17 03:49:40;;;;;;;33.55;5.45;;;11.30;99.90;;;;;;4985126;28;20639;-78
2022/02/17 03:52:09;;;;;;;39.53;5.75;;;11.20;99.90;;;;;;4989142;28;20197;-78
2022/02/17 03:54:35;;;;;;;24.90;5.22;;;11.10;99.90;;;;;;4969382;28;20296;-79
2022/02/17 03:57:00;;;;;;;42.75;5.05;;;11.20;99.90;;;;;;4968406;28;20930;-78
2022/02/17 03:59:26;;;;;;;27.30;4.63;;;11.30;99.90;;;;;;4981387;28;20245;-80
2022/02/17 04:01:51;;;;;;;33.38;6.03;;;11.20;99.90;;;;;;4964841;28;20185;-78
2022/02/17 04:04:17;;;;;;;32.38;5.50;;;11.20;99.90;;;;;;4967429;28;20286;-78
2022/02/17 04:06:43;;;;;;;41.13;6.72;;;11.20;99.90;;;;;;4980166;28;20194;-78
2022/02/17 04:09:09;;;;;;;32.70;6.05;;;11.20;99.90;;;;;;4981018;28;20173;-78
2022/02/17 04:11:35;;;;;;;31.15;6.05;;;11.30;99.90;;;;;;4977631;28;20211;-78
2022/02/17 04:14:02;;;;;;;29.73;6.07;;;11.20;99.90;;;;;;4982700;28;20189;-78
2022/02/17 04:16:29;;;;;;;42.90;6.18;;;11.20;99.90;;;;;;4982972;28;20182;-78
2022/02/17 04:18:56;;;;;;;30.45;5.10;;;11.10;99.90;;;;;;4978098;28;20201;-78
2022/02/17 04:21:23;;;;;;;40.22;6.60;;;11.10;99.90;;;;;;4978166;28;20176;-78
2022/02/17 04:23:49;;;;;;;32.45;6.25;;;11.10;99.90;;;;;;4965515;28;20634;-81
2022/02/17 04:26:17;;;;;;;30.58;5.65;;;11.10;99.90;;;;;;4965749;28;20274;-79
2022/02/17 04:28:46;;;;;;;48.90;7.20;;;11.10;99.90;;;;;;4977769;28;20193;-79
2022/02/17 04:31:13;;;;;;;33.65;6.25;;;11.10;99.90;;;;;;4971934;28;20181;-79
2022/02/17 04:33:41;;;;;;;37.70;6.57;;;11.10;99.90;;;;;;4989017;28;20189;-78
2022/02/17 04:36:08;;;;;;;33.65;6.78;;;11.00;99.90;;;;;;4979482;28;20166;-78
2022/02/17 04:38:34;;;;;;;33.05;6.38;;;10.90;99.90;;;;;;4968470;28;20229;-77
2022/02/17 04:43:45;;;;;;;33.55;5.70;;;11.10;99.90;;;;;;4976282;28;20292;-77
2022/02/17 04:46:12;;;;;;;24.13;4.88;;;11.00;99.90;;;;;;4985323;28;20193;-77
2022/02/17 04:48:37;;;;;;;30.50;5.47;;;11.00;99.90;;;;;;4981662;28;20162;-80
2022/02/17 04:51:03;;;;;;;33.90;5.82;;;11.00;99.90;;;;;;4978697;28;20170;-79
2022/02/17 04:53:30;;;;;;;36.60;5.78;;;11.10;99.90;;;;;;4978761;28;20194;-78
2022/02/17 04:55:55;;;;;;;37.35;5.45;;;11.10;99.90;;;;;;4981918;28;20173;-78
2022/02/17 04:58:23;;;;;;;33.97;6.65;;;11.20;99.90;;;;;;4978999;28;20204;-79
2022/02/17 05:00:49;;;;;;;50.17;6.82;;;11.20;99.90;;;;;;4979947;28;20154;-79
2022/02/17 05:03:15;;;;;;;42.05;5.93;;;11.20;99.90;;;;;;4974680;28;20214;-78
2022/02/17 05:05:41;;;;;;;39.38;6.65;;;11.10;99.90;;;;;;4975114;28;20166;-79
2022/02/17 05:08:07;;;;;;;48.15;7.82;;;11.20;99.90;;;;;;4974596;28;20212;-82
2022/02/17 05:10:33;;;;;;;53.88;7.30;;;11.20;99.90;;;;;;4975830;28;20218;-78
2022/02/17 05:12:59;;;;;;;50.60;7.72;;;11.20;99.90;;;;;;4984783;28;20174;-79
2022/02/17 05:15:25;;;;;;;40.70;5.85;;;11.20;99.90;;;;;;4978364;28;20204;-78
2022/02/17 05:17:51;;;;;;;42.25;5.65;;;11.10;99.90;;;;;;4979464;28;20173;-79
2022/02/17 05:20:18;;;;;;;30.38;5.60;;;11.00;99.90;;;;;;4981009;28;20192;-79
2022/02/17 05:22:44;;;;;;;41.10;5.90;;;11.00;99.90;;;;;;4958993;28;20205;-79
2022/02/17 05:25:12;;;;;;;48.05;7.80;;;11.10;99.90;;;;;;4978219;28;20217;-78
2022/02/17 05:27:38;;;;;;;50.75;7.22;;;11.00;99.90;;;;;;4989972;28;20154;-80
2022/02/17 05:30:07;;;;;;;39.63;7.30;;;10.90;99.90;;;;;;4993530;28;20178;-84
2022/02/17 05:32:41;;;;;;;53.45;8.32;;;11.00;99.90;;;;;;4976860;28;20539;-78
2022/02/17 05:35:08;;;;;;;32.90;5.68;;;11.00;99.90;;;;;;4979590;28;20188;-78
2022/02/17 05:37:34;;;;;;;36.05;7.25;;;10.90;99.90;;;;;;4979940;28;20189;-78
2022/02/17 05:40:00;;;;;;;37.58;6.90;;;10.90;99.90;;;;;;4961924;28;20180;-78
2022/02/17 05:42:27;;;;;;;39.28;5.85;;;11.00;99.90;;;;;;4980122;28;20201;-78
2022/02/17 05:44:53;;;;;;;49.38;6.47;;;11.00;99.90;;;;;;4960366;28;20224;-78
2022/02/17 05:47:18;;;;;;;44.53;7.60;;;11.00;99.90;;;;;;4974986;28;20206;-78
2022/02/17 05:49:44;;;;;;;46.13;7.60;;;11.00;99.90;;;;;;4982019;28;20166;-78
2022/02/17 05:52:09;;;;;;;49.15;6.68;;;11.00;99.90;;;;;;4981475;28;20197;-78
2022/02/17 05:54:35;;;;;;;39.15;7.20;;;11.10;99.90;;;;;;4958776;28;20232;-79
2022/02/17 05:57:01;;;;;;;40.00;7.30;;;11.10;99.90;;;;;;4975295;28;20304;-78
2022/02/17 05:59:28;;;;;;;44.03;6.47;;;11.10;99.90;;;;;;4976726;28;20532;-77
2022/02/17 06:01:54;;;;;;;41.35;6.40;;;11.10;99.90;;;;;;4959909;28;20633;-79
2022/02/17 06:04:19;;;;;;;37.38;7.03;;;11.10;99.90;;;;;;4980440;28;20304;-79
2022/02/17 06:06:45;;;;;;;42.40;7.00;;;11.10;99.90;;;;;;4977259;28;20170;-78
2022/02/17 06:09:11;;;;;;;39.80;7.45;;;11.20;99.90;;;;;;4976340;28;20224;-78
2022/02/17 06:11:36;;;;;;;35.10;5.30;;;11.10;99.90;;;;;;4976407;28;20579;-78
2022/02/17 06:14:02;;;;;;;50.25;6.53;;;11.00;99.90;;;;;;4977900;28;20212;-78
2022/02/17 06:16:28;;;;;;;27.60;5.38;;;11.10;99.90;;;;;;4989329;28;20162;-77
2022/02/17 06:18:53;;;;;;;39.40;6.70;;;11.10;99.90;;;;;;4991361;28;20616;-77
2022/02/17 06:21:19;;;;;;;55.58;7.15;;;11.00;99.90;;;;;;4992820;28;20174;-77
2022/02/17 06:23:46;;;;;;;46.97;6.80;;;11.00;99.90;;;;;;4986270;28;20336;-78
2022/02/17 06:26:11;;;;;;;29.90;5.53;;;11.00;99.90;;;;;;4962132;28;20268;-78
2022/02/17 06:28:37;;;;;;;40.20;6.50;;;11.00;99.90;;;;;;4978711;28;20639;-78
2022/02/17 06:31:03;;;;;;;32.05;5.47;;;11.00;99.90;;;;;;4979180;28;20182;-78
2022/02/17 06:33:32;;;;;;;34.15;6.60;;;10.90;99.90;;;;;;4961212;28;20206;-78
2022/02/17 06:35:58;;;;;;;31.55;6.43;;;10.90;99.90;;;;;;4978541;28;20240;-78
2022/02/17 06:38:23;;;;;;;35.08;6.93;;;10.80;99.90;;;;;;4979005;28;20209;-77
2022/02/17 06:40:49;;;;;;;39.58;7.38;;;10.80;99.90;;;;;;4977964;28;20162;-77
2022/02/17 06:43:15;;;;;;;33.00;7.22;;;10.80;99.90;;;;;;4979008;28;20213;-77
2022/02/17 06:45:42;;;;;;;26.73;5.53;;;10.80;99.90;;;;;;4983054;28;20173;-79
2022/02/17 06:48:09;;;;;;;35.75;5.93;;;10.70;99.90;;;;;;4985494;28;20180;-79
2022/02/17 06:50:35;;;;;;;51.90;7.43;;;10.70;99.90;;;;;;4976554;28;20174;-78
2022/02/17 06:53:01;;;;;;;42.15;6.43;;;10.70;99.90;;;;;;4976449;28;20170;-79
2022/02/17 06:55:27;;;;;;;37.03;6.70;;;10.70;99.90;;;;;;4959023;28;20205;-79
2022/02/17 06:57:53;;;;;;;38.35;7.60;;;10.70;99.90;;;;;;4976361;28;20204;-78
2022/02/17 07:00:20;;;;;;;49.63;7.20;;;10.70;99.90;;;;;;4979559;28;20201;-78
2022/02/17 07:02:51;;;;;;;38.10;6.20;;;10.70;99.90;;;;;;4986631;28;20213;-78
2022/02/17 07:05:23;;;;;;;41.28;7.82;;;10.70;99.90;;;;;;4985782;28;20162;-78
2022/02/17 07:07:50;;;;;;;44.35;6.35;;;10.80;99.90;;;;;;4985597;28;20170;-78
2022/02/17 07:10:54;;;;;;;40.65;5.18;;;10.70;99.90;;;;;;4981093;28;20181;-78
2022/02/17 07:13:06;;;;;;;42.83;7.03;;;10.80;99.90;;;;;;4975809;28;20713;-79
2022/02/17 07:15:35;;;;;;;47.05;7.38;;;10.70;99.90;;;;;;4976501;28;20224;-78
2022/02/17 07:18:08;;;;;;;58.28;7.78;;;10.80;99.90;;;;;;4975750;28;20250;-79
2022/02/17 07:20:37;;;;;;;34.45;7.22;;;10.80;99.90;;;;;;4975907;28;20166;-78
2022/02/17 07:23:03;;;;;;;33.63;6.05;;;10.80;99.90;;;;;;4974848;28;20611;-79
2022/02/17 07:25:29;;;;;;;53.90;7.40;;;10.90;99.90;;;;;;4975738;28;20202;-79
2022/02/17 07:27:55;;;;;;;44.58;6.35;;;10.90;99.90;;;;;;4975248;28;20181;-78
2022/02/17 07:30:20;;;;;;;37.83;6.40;;;10.80;99.90;;;;;;4975598;28;20282;-80
2022/02/17 07:32:46;;;;;;;31.08;5.60;;;10.80;99.90;;;;;;4975839;28;20653;-81
2022/02/17 07:35:12;;;;;;;39.78;6.53;;;10.80;99.90;;;;;;4976769;28;20200;-92
2022/02/17 07:37:40;;;;;;;49.67;7.00;;;10.80;99.90;;;;;;4977213;28;20639;-79
2022/02/17 07:40:08;;;;;;;41.15;6.68;;;10.80;99.90;;;;;;4959887;28;20665;-79
2022/02/17 07:42:34;;;;;;;40.33;6.13;;;10.70;99.90;;;;;;4975337;28;20209;-79
2022/02/17 07:45:00;;;;;;;44.38;6.88;;;10.80;99.90;;;;;;4974416;28;20681;-89
2022/02/17 07:47:29;;;;;;;38.50;6.20;;;10.70;99.90;;;;;;4977162;28;20543;-77
2022/02/17 07:49:56;;;;;;;34.78;5.22;;;10.70;99.90;;;;;;4975237;28;20170;-77
2022/02/17 07:52:22;;;;;;;25.73;5.68;;;10.80;99.90;;;;;;4975391;28;20253;-77
2022/02/17 07:54:48;;;;;;;40.63;5.18;;;10.80;99.90;;;;;;4978819;28;20279;-78
2022/02/17 07:57:14;;;;;;;30.73;5.38;;;10.80;99.90;;;;;;4992208;28;20166;-78
2022/02/17 07:59:39;;;;;;;29.15;4.93;;;10.80;99.90;;;;;;4990831;28;20197;-78
2022/02/17 08:02:05;;;;;;;27.00;5.15;;;10.80;99.90;;;;;;4977330;28;20166;-77
2022/02/17 08:04:30;;;;;;;30.52;4.40;;;10.80;99.90;;;;;;4976342;28;20196;-78
2022/02/17 08:06:56;;;;;;;37.72;6.30;;;10.80;99.90;;;;;;4982046;28;20184;-80
2022/02/17 08:09:22;;;;;;;20.00;5.28;;;10.90;99.90;;;;;;4977754;28;20792;-78
2022/02/17 08:11:48;;;;;;;27.98;5.57;;;10.90;99.90;;;;;;4960279;28;20174;-78
2022/02/17 08:14:14;;;;;;;27.15;4.60;;;10.80;99.90;;;;;;4976760;28;20252;-78
2022/02/17 08:16:39;;;;;;;30.33;5.65;;;10.80;99.90;;;;;;4975870;28;20178;-78
2022/02/17 08:19:07;;;;;;;26.73;4.20;;;10.80;99.90;;;;;;4957863;28;20253;-79
2022/02/17 08:21:33;;;;;;;29.05;4.60;;;10.80;99.90;;;;;;4976606;28;20178;-80
2022/02/17 08:23:58;;;;;;;38.95;6.72;;;10.80;99.90;;;;;;4977771;28;20202;-79
2022/02/17 08:26:24;;;;;;;31.75;4.95;;;10.90;99.90;;;;;;4976721;28;20220;-81
2022/02/17 08:28:57;;;;;;;26.67;5.22;;;11.00;99.90;;;;;;4960421;28;20197;-82
2022/02/17 08:31:26;;;;;;;23.40;4.50;;;11.00;99.90;;;;;;4957304;28;20520;-79
2022/02/17 08:33:51;;;;;;;26.17;4.50;;;11.00;99.90;;;;;;4978504;28;20190;-82
2022/02/17 08:36:17;;;;;;;24.55;3.85;;;11.10;99.90;;;;;;4975576;28;20169;-82
2022/02/17 08:38:44;;;;;;;24.77;4.85;;;11.00;99.90;;;;;;4976532;28;20173;-77
2022/02/17 08:41:10;;;;;;;28.95;5.25;;;11.00;99.90;;;;;;4976841;28;20256;-88
2022/02/17 08:43:35;;;;;;;23.70;3.92;;;11.00;99.90;;;;;;4975388;28;20248;-82
2022/02/17 08:46:03;;;;;;;27.38;4.95;;;11.10;99.90;;;;;;4976640;28;20229;-79
2022/02/17 08:48:29;;;;;;;27.27;4.95;;;11.10;99.90;;;;;;4975419;28;20178;-79
2022/02/17 08:50:56;;;;;;;30.08;6.20;;;11.30;99.90;;;;;;4975708;28;20537;-79
2022/02/17 08:53:22;;;;;;;37.10;5.63;;;11.30;99.90;;;;;;4976131;28;20193;-78
2022/02/17 08:55:48;;;;;;;36.90;6.30;;;11.20;99.90;;;;;;4974558;28;20169;-79
2022/02/17 08:58:13;;;;;;;44.63;6.63;;;11.30;99.90;;;;;;4974418;28;20166;-85
2022/02/17 09:00:39;;;;;;;29.73;4.80;;;11.30;99.90;;;;;;4974274;28;20248;-85
2022/02/17 09:03:06;;;;;;;30.42;5.50;;;11.40;99.90;;;;;;4974030;28;20210;-79
2022/02/17 09:05:32;;;;;;;31.17;4.63;;;11.40;99.90;;;;;;4974385;28;20689;-78
2022/02/17 09:07:58;;;;;;;35.90;6.55;;;11.30;99.90;;;;;;4974216;28;20197;-81
2022/02/17 09:10:26;;;;;;;37.08;8.88;;;11.30;99.90;;;;;;4975881;28;20174;-80
2022/02/17 09:12:52;;;;;;;36.45;6.30;;;11.40;99.90;;;;;;4981831;28;20174;-79
2022/02/17 09:15:17;;;;;;;42.10;7.25;;;11.50;99.90;;;;;;4960612;28;20178;-79
2022/02/17 09:17:46;;;;;;;40.78;6.43;;;11.50;99.90;;;;;;4955716;28;20240;-82
2022/02/17 09:20:12;;;;;;;41.83;6.50;;;11.50;99.90;;;;;;4955394;28;20169;-86
2022/02/17 09:22:38;;;;;;;33.60;5.47;;;11.50;99.90;;;;;;4973859;28;20209;-81
2022/02/17 09:25:04;;;;;;;41.47;5.95;;;11.40;99.90;;;;;;4973613;28;20317;-80
2022/02/17 09:27:30;;;;;;;26.05;6.25;;;11.20;99.90;;;;;;4974111;28;20169;-78
2022/02/17 09:29:56;;;;;;;26.55;4.20;;;11.20;99.90;;;;;;4972759;28;20205;-78
2022/02/17 09:32:22;;;;;;;20.35;3.65;;;11.20;99.90;;;;;;4974071;28;20169;-79
2022/02/17 09:34:48;;;;;;;28.85;3.38;;;11.10;99.90;;;;;;4973968;28;20658;-79
2022/02/17 09:37:13;;;;;;;31.17;3.42;;;11.00;99.90;;;;;;4974070;28;20173;-78
2022/02/17 09:39:39;;;;;;;18.33;2.70;;;11.00;99.90;;;;;;4974220;28;20537;-79
2022/02/17 09:42:06;;;;;;;13.25;2.85;;;11.10;99.90;;;;;;4974135;28;20184;-78
2022/02/17 09:44:33;;;;;;;15.88;3.00;;;11.00;99.90;;;;;;4956309;28;20293;-78
2022/02/17 09:46:59;;;;;;;10.15;2.72;;;11.10;99.90;;;;;;4977203;28;20177;-79
2022/02/17 09:49:24;;;;;;;18.25;3.20;;;11.20;99.90;;;;;;4977253;28;20174;-78
2022/02/17 09:51:52;;;;;;;16.00;3.80;;;11.20;99.90;;;;;;4976539;28;20165;-78
2022/02/17 09:54:19;;;;;;;14.48;3.65;;;11.20;99.90;;;;;;4976963;28;20722;-78
2022/02/17 09:56:45;;;;;;;17.83;3.78;;;11.20;99.90;;;;;;4977110;28;20185;-78
2022/02/17 09:59:11;;;;;;;17.67;3.72;;;11.20;99.90;;;;;;4978031;28;20174;-78
2022/02/17 10:01:38;;;;;;;23.77;4.18;;;11.20;99.90;;;;;;4977861;28;20212;-78
2022/02/17 10:04:12;;;;;;;28.85;4.55;;;11.20;99.90;;;;;;4960255;28;20206;-78
2022/02/17 10:06:49;;;;;;;47.58;5.55;;;11.20;99.90;;;;;;4977186;28;20181;-78
2022/02/17 10:09:16;;;;;;;20.92;4.45;;;11.30;99.90;;;;;;4977166;28;20169;-78
2022/02/17 10:11:43;;;;;;;21.20;4.07;;;11.40;99.90;;;;;;4977610;28;20232;-78
2022/02/17 10:14:12;;;;;;;29.42;5.07;;;11.40;99.90;;;;;;4977482;28;20224;-78
2022/02/17 10:16:57;;;;;;;20.52;4.57;;;11.50;99.90;;;;;;4976889;28;20216;-78
2022/02/17 10:19:26;;;;;;;31.90;5.28;;;11.50;99.90;;;;;;4977141;28;20666;-78
2022/02/17 10:22:08;;;;;;;22.33;4.50;;;11.60;99.90;;;;;;4977198;28;20315;-78
2022/02/17 10:24:45;;;;;;;27.73;4.20;;;11.70;99.90;;;;;;4979281;28;20210;-78
2022/02/17 10:27:15;;;;;;;35.10;4.72;;;11.80;99.90;;;;;;4990405;28;20189;-78
2022/02/17 10:29:56;;;;;;;23.90;5.85;;;11.80;99.90;;;;;;4983558;28;20174;-78
2022/02/17 10:32:22;;;;;;;24.10;3.72;;;12.10;99.90;;;;;;4962383;28;20170;-78
2022/02/17 10:35:05;;;;;;;25.90;5.00;;;12.10;99.90;;;;;;4976504;28;20721;-78
2022/02/17 10:37:48;;;;;;;28.52;3.67;;;12.00;99.90;;;;;;4977271;28;20170;-78
2022/02/17 10:40:21;;;;;;;20.58;3.53;;;11.90;99.90;;;;;;4977696;28;20306;-78
2022/02/17 10:43:03;;;;;;;17.95;3.40;;;11.90;99.90;;;;;;4977203;28;20205;-78
2022/02/17 10:45:29;;;;;;;18.60;3.70;;;12.00;99.90;;;;;;4977282;28;20194;-78
2022/02/17 10:48:10;;;;;;;17.50;4.95;;;12.20;99.90;;;;;;4984097;28;20237;-79
2022/02/17 10:50:36;;;;;;;18.45;3.00;;;12.50;99.90;;;;;;4993943;28;20158;-78
2022/02/17 10:53:17;;;;;;;22.42;3.78;;;12.60;99.90;;;;;;4993224;28;20509;-77
2022/02/17 10:55:54;;;;;;;23.45;4.03;;;12.80;99.90;;;;;;4993789;28;20181;-78
2022/02/17 10:58:31;;;;;;;10.52;3.28;;;12.80;99.90;;;;;;4960245;28;20174;-78
2022/02/17 11:01:01;;;;;;;27.40;4.38;;;12.90;99.90;;;;;;4976744;28;20161;-79
2022/02/17 11:03:29;;;;;;;24.08;3.95;;;12.60;99.90;;;;;;4977556;28;20289;-78
2022/02/17 11:05:55;;;;;;;16.20;3.13;;;12.50;99.90;;;;;;4976265;28;20162;-79
2022/02/17 11:08:21;;;;;;;20.95;3.00;;;12.50;99.90;;;;;;4975941;28;20260;-80
2022/02/17 11:10:47;;;;;;;19.98;3.60;;;12.60;99.90;;;;;;4977386;28;20619;-85
2022/02/17 11:13:23;;;;;;;16.30;3.00;;;12.70;99.90;;;;;;4959430;28;20309;-78
2022/02/17 11:15:50;;;;;;;19.45;3.20;;;12.50;99.90;;;;;;4976922;28;20203;-78
2022/02/17 11:18:18;;;;;;;19.60;2.92;;;12.20;99.90;;;;;;4976031;28;20166;-77
2022/02/17 11:20:46;;;;;;;11.52;2.80;;;12.10;99.90;;;;;;4977758;28;20237;-78
2022/02/17 11:23:14;;;;;;;11.40;2.88;;;12.10;99.90;;;;;;4977103;28;20571;-80
2022/02/17 11:25:42;;;;;;;12.98;2.17;;;11.90;99.90;;;;;;4977939;28;20190;-76
2022/02/17 11:28:15;;;;;;;12.50;3.22;;;11.80;99.90;;;;;;4977514;28;20185;-77
2022/02/17 11:30:56;;;;;;;21.77;3.83;;;11.80;99.90;;;;;;4977822;28;20339;-78
2022/02/17 11:33:32;;;;;;;17.05;2.85;;;12.00;99.90;;;;;;4979702;28;20475;-79
2022/02/17 11:36:21;;;;;;;16.52;2.88;;;12.10;99.90;;;;;;4976268;28;20712;-77
2022/02/17 11:39:06;;;;;;;13.52;2.42;;;12.20;99.90;;;;;;4961267;28;20178;-77
2022/02/17 11:41:36;;;;;;;11.10;3.45;;;12.20;99.90;;;;;;4975595;28;20174;-92
2022/02/17 11:44:08;;;;;;;13.57;2.50;;;12.30;99.90;;;;;;4975461;28;20214;-90
2022/02/17 11:46:40;;;;;;;16.73;2.47;;;12.40;99.90;;;;;;4975247;28;20181;-89
2022/02/17 11:49:09;;;;;;;6.57;1.65;;;12.30;99.90;;;;;;4975194;28;20540;-78
2022/02/17 11:51:35;;;;;;;8.25;2.05;;;12.40;99.90;;;;;;4975234;28;20220;-82
2022/02/17 11:54:17;;;;;;;14.75;4.05;;;12.30;99.90;;;;;;4975226;28;20189;-80
2022/02/17 11:56:51;;;;;;;12.88;2.42;;;12.30;99.90;;;;;;4979127;28;20181;-79
2022/02/17 11:59:22;;;;;;;8.63;2.58;;;12.50;99.90;;;;;;4974795;28;20178;-79
2022/02/17 12:01:50;;;;;;;12.15;2.15;;;12.60;99.90;;;;;;4957727;28;20239;-82
2022/02/17 12:04:27;;;;;;;10.98;1.88;;;12.60;99.90;;;;;;4975004;28;20245;-79
2022/02/17 12:06:58;;;;;;;7.22;1.55;;;12.50;99.90;;;;;;4975283;28;20622;-79
2022/02/17 12:09:29;;;;;;;7.55;1.80;;;12.40;99.90;;;;;;4975390;28;20177;-77
2022/02/17 12:12:07;;;;;;;5.22;2.08;;;12.60;99.90;;;;;;4975262;28;20237;-77
2022/02/17 12:14:33;;;;;;;12.10;1.60;;;12.80;99.90;;;;;;4975173;28;20514;-78
2022/02/17 12:17:02;;;;;;;5.50;1.10;;;12.90;99.90;;;;;;4974936;28;20173;-77
2022/02/17 12:19:33;;;;;;;11.77;1.83;;;12.90;99.90;;;;;;4973748;28;20544;-78
2022/02/17 12:22:13;;;;;;;6.97;1.67;;;12.90;99.90;;;;;;4975058;28;20391;-78
2022/02/17 12:24:42;;;;;;;12.73;1.77;;;13.10;99.90;;;;;;4974329;28;20255;-78
2022/02/17 12:27:21;;;;;;;6.95;1.45;;;13.40;99.90;;;;;;4957800;28;20232;-77
2022/02/17 12:29:47;;;;;;;16.70;2.45;;;13.50;99.90;;;;;;4974895;28;20193;-78
2022/02/17 12:32:18;;;;;;;8.02;1.73;;;13.30;99.90;;;;;;4974450;28;20169;-88
2022/02/17 12:34:45;;;;;;;9.60;1.40;;;13.20;99.90;;;;;;4957281;28;20950;-78
2022/02/17 12:37:18;;;;;;;7.18;1.48;;;13.10;99.90;;;;;;4974588;28;20170;-88
2022/02/17 12:39:45;;;;;;;10.88;1.25;;;12.90;99.90;;;;;;4974671;28;20177;-82
2022/02/17 12:42:11;;;;;;;5.57;1.30;;;12.60;99.90;;;;;;4974668;28;20637;-78